createdAt,value
2018-10-21T00:01:27.904Z,98340.22
2018-10-21T00:03:57.929Z,98338.42
2018-10-21T00:06:27.958Z,98333.10
2018-10-21T00:08:57.837Z,98324.59
2018-10-21T00:11:27.676Z,98329.27
2018-10-21T00:13:57.528Z,98336.58
2018-10-21T00:16:27.343Z,98326.66
2018-10-21T00:18:57.188Z,98331.91
2018-10-21T00:21:26.998Z,98323.55
2018-10-21T00:23:56.886Z,98322.60
2018-10-21T00:26:26.654Z,98327.25
2018-10-21T00:28:56.480Z,98319.01
2018-10-21T00:31:26.322Z,98315.41
2018-10-21T00:33:56.136Z,98314.85
2018-10-21T00:36:25.924Z,98312.07
2018-10-21T00:38:55.866Z,98311.21
2018-10-21T00:41:25.721Z,98309.33
2018-10-21T00:43:55.562Z,98145.38
2018-10-21T00:46:25.356Z,98296.70
2018-10-21T00:48:55.239Z,98305.36
2018-10-21T00:51:24.978Z,98299.62
2018-10-21T00:53:54.784Z,98299.66
2018-10-21T00:56:24.675Z,98301.14
2018-10-21T00:58:54.439Z,98304.58
2018-10-21T01:01:24.287Z,98303.72
2018-10-21T01:03:54.148Z,98304.17
2018-10-21T01:06:24.009Z,98207.34
2018-10-21T01:08:53.972Z,98297.53
2018-10-21T01:11:23.797Z,98292.56
2018-10-21T01:13:53.613Z,98289.41
2018-10-21T01:16:23.491Z,98280.17
2018-10-21T01:18:53.511Z,98282.43
2018-10-21T01:21:23.283Z,98283.17
2018-10-21T01:23:53.099Z,98272.55
2018-10-21T01:26:22.952Z,98271.93
2018-10-21T01:28:52.707Z,98278.73
2018-10-21T01:31:22.490Z,98282.25
2018-10-21T01:33:52.363Z,98285.78
2018-10-21T01:36:22.568Z,98298.83
2018-10-21T01:38:51.952Z,98305.94
2018-10-21T01:41:21.663Z,98299.17
2018-10-21T01:43:51.488Z,98291.67
2018-10-21T01:46:21.410Z,98284.70
2018-10-21T01:48:51.158Z,98293.96
2018-10-21T01:51:20.987Z,98290.88
2018-10-21T01:53:50.863Z,98297.29
2018-10-21T01:56:20.677Z,98306.91
2018-10-21T01:58:50.447Z,98307.29
2018-10-21T02:01:20.219Z,98314.66
2018-10-21T02:03:50.027Z,98318.93
2018-10-21T02:06:19.890Z,98319.67
2018-10-21T02:08:49.644Z,98302.16
2018-10-21T02:11:19.490Z,98305.60
2018-10-21T02:13:49.262Z,98307.45
2018-10-21T02:16:19.092Z,98311.92
2018-10-21T02:18:48.901Z,98316.72
2018-10-21T02:21:18.725Z,98317.17
2018-10-21T02:23:48.576Z,98312.38
2018-10-21T02:26:18.391Z,98313.64
2018-10-21T02:28:48.073Z,98310.27
2018-10-21T02:31:17.969Z,98306.38
2018-10-21T02:33:47.743Z,98310.42
2018-10-21T02:36:17.620Z,98186.37
2018-10-21T02:38:47.356Z,98310.84
2018-10-21T02:41:33.188Z,98318.33
2018-10-21T02:44:03.724Z,98328.08
2018-10-21T02:46:34.032Z,98333.44
2018-10-21T02:49:04.676Z,98336.05
2018-10-21T02:51:34.506Z,98331.90
2018-10-21T02:54:04.359Z,98329.84
2018-10-21T02:56:34.172Z,98343.81
2018-10-21T02:59:04.020Z,98344.72
2018-10-21T03:01:33.780Z,98340.81
2018-10-21T03:04:03.600Z,98340.41
2018-10-21T03:06:33.422Z,98345.69
2018-10-21T03:09:03.337Z,98347.41
2018-10-21T03:11:33.079Z,98341.75
2018-10-21T03:14:02.988Z,98347.06
2018-10-21T03:16:32.870Z,98350.89
2018-10-21T03:19:02.819Z,97933.98
2018-10-21T03:21:32.562Z,98362.10
2018-10-21T03:24:02.382Z,98364.69
2018-10-21T03:26:32.225Z,98368.17
2018-10-21T03:29:01.981Z,98369.07
2018-10-21T03:31:31.751Z,98367.61
2018-10-21T03:34:01.536Z,98351.23
2018-10-21T03:36:31.253Z,98350.30
2018-10-21T03:39:01.069Z,98340.17
2018-10-21T03:41:30.832Z,98352.84
2018-10-21T03:44:00.591Z,98355.46
2018-10-21T03:46:30.365Z,98357.72
2018-10-21T03:49:00.164Z,98372.97
2018-10-21T03:51:29.948Z,98377.02
2018-10-21T03:53:59.737Z,98378.89
2018-10-21T03:56:29.574Z,98386.77
2018-10-21T03:58:59.362Z,98381.93
2018-10-21T04:01:29.131Z,98384.10
2018-10-21T04:03:58.985Z,98387.96
2018-10-21T04:06:28.746Z,98380.09
2018-10-21T04:08:58.522Z,98382.30
2018-10-21T04:11:28.280Z,98383.58
2018-10-21T04:13:58.096Z,98387.10
2018-10-21T04:16:27.974Z,98386.66
2018-10-21T04:18:57.731Z,98380.95
2018-10-21T04:21:27.528Z,98381.52
2018-10-21T04:23:57.315Z,98380.35
2018-10-21T04:26:27.140Z,98372.66
2018-10-21T04:28:56.931Z,98373.04
2018-10-21T04:31:26.642Z,98383.42
2018-10-21T04:33:56.487Z,98383.35
2018-10-21T04:36:27.894Z,98393.77
2018-10-21T04:40:12.714Z,97932.23
2018-10-21T04:42:42.645Z,98398.05
2018-10-21T04:45:13.302Z,98398.68
2018-10-21T04:47:43.212Z,98407.41
2018-10-21T04:50:13.457Z,98433.64
2018-10-21T04:52:43.312Z,98410.07
2018-10-21T04:55:14.936Z,98408.27
2018-10-21T04:57:47.016Z,98405.58
2018-10-21T05:00:18.988Z,98406.37
2018-10-21T05:02:48.756Z,98407.19
2018-10-21T05:05:18.703Z,98407.23
2018-10-21T05:07:48.458Z,98402.95
2018-10-21T05:10:28.961Z,98407.30
2018-10-21T05:12:58.880Z,98412.52
2018-10-21T05:15:29.959Z,98417.31
2018-10-21T05:17:59.826Z,98416.90
2018-10-21T05:20:29.708Z,98416.48
2018-10-21T05:22:59.570Z,98420.88
2018-10-21T05:25:29.344Z,98410.83
2018-10-21T05:27:59.353Z,98418.89
2018-10-21T05:30:29.205Z,98414.73
2018-10-21T05:32:58.952Z,98415.06
2018-10-21T05:35:28.789Z,98412.66
2018-10-21T05:37:58.691Z,98415.48
2018-10-21T05:40:28.523Z,98423.99
2018-10-21T05:42:58.323Z,98427.25
2018-10-21T05:45:28.176Z,98430.05
2018-10-21T05:47:58.062Z,98436.16
2018-10-21T05:50:27.837Z,98443.66
2018-10-21T05:52:57.590Z,98441.52
2018-10-21T05:55:27.351Z,98449.73
2018-10-21T05:57:57.300Z,98455.01
2018-10-21T06:00:26.988Z,98454.56
2018-10-21T06:02:56.778Z,98455.01
2018-10-21T06:05:49.078Z,98459.42
2018-10-21T06:08:18.978Z,98465.47
2018-10-21T06:10:48.746Z,98467.20
2018-10-21T06:13:18.511Z,98465.12
2018-10-21T06:15:48.297Z,98465.61
2018-10-21T06:18:21.871Z,98408.37
2018-10-21T06:20:54.211Z,98478.94
2018-10-21T06:23:23.990Z,98477.07
2018-10-21T06:25:53.881Z,98477.03
2018-10-21T06:28:23.678Z,98467.75
2018-10-21T06:30:53.467Z,98455.94
2018-10-21T06:33:23.203Z,98466.43
2018-10-21T06:35:53.193Z,98469.50
2018-10-21T06:38:23.096Z,98466.02
2018-10-21T06:40:52.938Z,98479.03
2018-10-21T06:43:22.794Z,98473.23
2018-10-21T06:45:52.644Z,98470.30
2018-10-21T06:48:22.489Z,98474.23
2018-10-21T06:50:52.301Z,98488.63
2018-10-21T06:53:22.091Z,98492.05
2018-10-21T06:55:51.866Z,98498.64
2018-10-21T06:58:21.584Z,98505.11
2018-10-21T07:00:51.460Z,98504.27
2018-10-21T07:03:21.296Z,98504.73
2018-10-21T07:06:24.970Z,98503.34
2018-10-21T07:08:56.044Z,98504.36
2018-10-21T07:11:25.828Z,98502.86
2018-10-21T07:13:55.660Z,98503.69
2018-10-21T07:16:25.554Z,98496.80
2018-10-21T07:18:55.568Z,98500.40
2018-10-21T07:21:25.398Z,98500.59
2018-10-21T07:23:55.371Z,98496.78
2018-10-21T07:26:25.326Z,98484.55
2018-10-21T07:28:55.304Z,98473.67
2018-10-21T07:31:25.107Z,98473.12
2018-10-21T07:33:54.895Z,98473.56
2018-10-21T07:36:24.808Z,98473.06
2018-10-21T07:38:57.644Z,98472.41
2018-10-21T07:41:27.487Z,98465.24
2018-10-21T07:43:57.374Z,98458.85
2018-10-21T07:46:27.173Z,98466.81
2018-10-21T07:48:57.080Z,98463.65
2018-10-21T07:51:27.588Z,98459.69
2018-10-21T07:54:02.146Z,98466.98
2018-10-21T07:56:32.016Z,98461.90
2018-10-21T07:59:01.824Z,98464.94
2018-10-21T08:01:31.698Z,98466.75
2018-10-21T08:04:01.483Z,98464.91
2018-10-21T08:06:42.154Z,98451.51
2018-10-21T08:09:12.626Z,98455.88
2018-10-21T08:11:42.431Z,98441.93
2018-10-21T08:14:12.387Z,98445.06
2018-10-21T08:16:42.223Z,98447.42
2018-10-21T08:19:12.368Z,98452.08
2018-10-21T08:21:42.187Z,98444.91
2018-10-21T08:24:12.091Z,98446.72
2018-10-21T08:26:42.080Z,98443.83
2018-10-21T08:29:12.022Z,98442.42
2018-10-21T08:31:41.907Z,98428.93
2018-10-21T08:34:11.796Z,98424.53
2018-10-21T08:36:41.676Z,98427.75
2018-10-21T08:39:11.589Z,98422.36
2018-10-21T08:41:41.459Z,98423.08
2018-10-21T08:44:11.314Z,98421.27
2018-10-21T08:46:41.296Z,98420.09
2018-10-21T08:49:11.119Z,98434.95
2018-10-21T08:51:40.995Z,98433.36
2018-10-21T08:54:10.928Z,98430.73
2018-10-21T08:56:40.797Z,98439.02
2018-10-21T08:59:10.621Z,98438.44
2018-10-21T09:01:40.519Z,98442.11
2018-10-21T09:04:10.530Z,98340.02
2018-10-21T09:06:40.375Z,98352.60
2018-10-21T09:09:11.737Z,98437.63
2018-10-21T09:11:42.028Z,98433.23
2018-10-21T09:14:12.519Z,98436.77
2018-10-21T09:16:42.485Z,98431.78
2018-10-21T09:19:12.377Z,98436.86
2018-10-21T09:21:42.232Z,98438.22
2018-10-21T09:24:12.140Z,98428.11
2018-10-21T09:26:42.040Z,98426.39
2018-10-21T09:29:11.922Z,98426.58
2018-10-21T09:31:41.864Z,98416.78
2018-10-21T09:34:11.806Z,98416.75
2018-10-21T09:36:41.590Z,98421.59
2018-10-21T09:39:13.619Z,98422.67
2018-10-21T09:41:44.243Z,98424.53
2018-10-21T09:44:14.164Z,98430.86
2018-10-21T09:46:44.111Z,98434.45
2018-10-21T09:49:14.285Z,98435.91
2018-10-21T09:51:44.040Z,98435.45
2018-10-21T09:54:13.950Z,98436.31
2018-10-21T09:56:43.796Z,98444.56
2018-10-21T09:59:13.751Z,98447.29
2018-10-21T10:01:48.676Z,98451.48
2018-10-21T10:04:18.585Z,98453.34
2018-10-21T10:06:48.582Z,98448.79
2018-10-21T10:09:18.688Z,98449.45
2018-10-21T10:11:48.516Z,98444.59
2018-10-21T10:14:18.503Z,98438.42
2018-10-21T10:16:48.358Z,98436.45
2018-10-21T10:19:18.408Z,98427.94
2018-10-21T10:21:48.284Z,98422.52
2018-10-21T10:24:18.108Z,98429.98
2018-10-21T10:26:47.969Z,98425.40
2018-10-21T10:29:17.847Z,98423.67
2018-10-21T10:31:47.694Z,98419.27
2018-10-21T10:34:17.672Z,98414.59
2018-10-21T10:36:47.482Z,98415.80
2018-10-21T10:39:17.350Z,98413.84
2018-10-21T10:41:47.209Z,98411.17
2018-10-21T10:44:17.073Z,98416.03
2018-10-21T10:46:47.001Z,98412.42
2018-10-21T10:49:16.967Z,98418.24
2018-10-21T10:51:46.761Z,98416.67
2018-10-21T10:54:16.739Z,98416.04
2018-10-21T10:56:46.646Z,98411.61
2018-10-21T10:59:16.519Z,98430.19
2018-10-21T11:01:46.447Z,98420.11
2018-10-21T11:04:16.373Z,98420.36
2018-10-21T11:06:46.249Z,98408.77
2018-10-21T11:09:16.172Z,98408.17
2018-10-21T11:11:46.070Z,98402.63
2018-10-21T11:14:16.112Z,98399.70
2018-10-21T11:16:46.118Z,98396.58
2018-10-21T11:19:16.076Z,98404.97
2018-10-21T11:21:46.015Z,98399.14
2018-10-21T11:24:16.051Z,98401.81
2018-10-21T11:26:46.078Z,98402.16
2018-10-21T11:29:16.124Z,98401.61
2018-10-21T11:31:46.156Z,98400.23
2018-10-21T11:34:16.624Z,98403.89
2018-10-21T11:36:46.548Z,98389.30
2018-10-21T11:39:16.431Z,98388.37
2018-10-21T11:41:46.375Z,98383.49
2018-10-21T11:44:16.322Z,98396.77
2018-10-21T11:46:46.372Z,98380.78
2018-10-21T11:49:16.453Z,98371.98
2018-10-21T11:51:46.300Z,98370.56
2018-10-21T11:54:16.376Z,98367.31
2018-10-21T11:56:46.279Z,98369.28
2018-10-21T11:59:16.147Z,98368.48
2018-10-21T12:01:46.188Z,98372.95
2018-10-21T12:04:16.322Z,98362.77
2018-10-21T12:06:46.322Z,98372.22
2018-10-21T12:09:16.375Z,98267.64
2018-10-21T12:11:46.373Z,98367.75
2018-10-21T12:14:16.440Z,98372.50
2018-10-21T12:16:46.350Z,98369.27
2018-10-21T12:19:16.399Z,98373.26
2018-10-21T12:21:46.319Z,98371.52
2018-10-21T12:24:16.346Z,98374.41
2018-10-21T12:26:46.295Z,98375.53
2018-10-21T12:29:16.374Z,98379.12
2018-10-21T12:31:46.292Z,98378.16
2018-10-21T12:34:16.292Z,98360.86
2018-10-21T12:36:46.171Z,98368.64
2018-10-21T12:39:16.153Z,98368.19
2018-10-21T12:41:46.096Z,98360.30
2018-10-21T12:44:16.090Z,98370.94
2018-10-21T12:46:46.071Z,98373.91
2018-10-21T12:49:16.138Z,98362.52
2018-10-21T12:51:45.968Z,98324.93
2018-10-21T12:54:15.993Z,98361.66
2018-10-21T12:56:45.979Z,98360.30
2018-10-21T12:59:16.026Z,98366.68
2018-10-21T13:01:46.004Z,98355.88
2018-10-21T13:04:16.072Z,98357.59
2018-10-21T13:06:45.921Z,98355.94
2018-10-21T13:09:15.815Z,98349.02
2018-10-21T13:11:45.798Z,98356.45
2018-10-21T13:14:15.723Z,98349.53
2018-10-21T13:16:45.702Z,98354.28
2018-10-21T13:19:15.724Z,98351.10
2018-10-21T13:21:45.814Z,98340.63
2018-10-21T13:24:15.783Z,98349.42
2018-10-21T13:26:45.753Z,98344.62
2018-10-21T13:29:15.759Z,98347.86
2018-10-21T13:31:45.670Z,98350.69
2018-10-21T13:34:15.891Z,98348.78
2018-10-21T13:36:45.731Z,98347.92
2018-10-21T13:39:15.787Z,98357.58
2018-10-21T13:42:22.967Z,98357.92
2018-10-21T13:44:53.007Z,98364.88
2018-10-21T13:47:22.786Z,98361.45
2018-10-21T13:49:52.526Z,98362.72
2018-10-21T13:52:22.698Z,98367.20
2018-10-21T13:54:55.271Z,98357.14
2018-10-21T13:57:25.839Z,98365.58
2018-10-21T13:59:56.877Z,98357.19
2018-10-21T14:02:27.882Z,98359.50
2018-10-21T14:04:58.785Z,98355.06
2018-10-21T14:07:29.642Z,98353.25
2018-10-21T14:10:00.495Z,98357.23
2018-10-21T14:12:31.287Z,98358.60
2018-10-21T14:15:02.040Z,98364.61
2018-10-21T14:17:31.862Z,98364.31
2018-10-21T14:20:01.562Z,98354.20
2018-10-21T14:22:31.884Z,98361.55
2018-10-21T14:25:01.759Z,98365.53
2018-10-21T14:27:31.409Z,98363.30
2018-10-21T14:30:01.845Z,98366.08
2018-10-21T14:32:33.754Z,98353.06
2018-10-21T14:35:03.987Z,98360.64
2018-10-21T14:37:34.371Z,98363.23
2018-10-21T14:40:04.137Z,98366.27
2018-10-21T14:42:34.386Z,98364.95
2018-10-21T14:45:05.380Z,98357.97
2018-10-21T14:47:35.437Z,98358.92
2018-10-21T14:50:05.184Z,98359.83
2018-10-21T14:52:35.062Z,98359.79
2018-10-21T14:55:04.905Z,98362.87
2018-10-21T14:57:35.147Z,98365.98
2018-10-21T15:00:06.307Z,98369.43
2018-10-21T15:02:43.599Z,98368.48
2018-10-21T15:05:14.002Z,98376.73
2018-10-21T15:07:45.945Z,98365.41
2018-10-21T15:10:15.880Z,98363.81
2018-10-21T15:12:45.639Z,98370.61
2018-10-21T15:15:16.175Z,98362.68
2018-10-21T15:17:47.089Z,98368.11
2018-10-21T15:20:17.270Z,98370.48
2018-10-21T15:22:47.068Z,98376.27
2018-10-21T15:25:17.559Z,98370.61
2018-10-21T15:27:47.919Z,98369.79
2018-10-21T15:33:48.367Z,98385.41
2018-10-21T15:36:19.246Z,98383.73
2018-10-21T15:38:49.393Z,98379.46
2018-10-21T15:41:20.332Z,98388.70
2018-10-21T15:43:51.178Z,98393.63
2018-10-21T15:46:47.376Z,98391.04
2018-10-21T15:49:18.586Z,98398.47
2018-10-21T15:51:49.312Z,98397.73
2018-10-21T15:54:20.124Z,98403.06
2018-10-21T15:56:50.393Z,98404.91
2018-10-21T15:59:21.349Z,98402.80
2018-10-21T16:05:04.764Z,98407.80
2018-10-21T16:07:35.617Z,98408.36
2018-10-21T16:13:37.144Z,98415.55
2018-10-21T16:16:07.807Z,98415.63
2018-10-21T16:18:38.556Z,98425.29
2018-10-21T16:21:58.855Z,98421.02
2018-10-21T16:24:29.416Z,98428.12
2018-10-21T16:27:33.704Z,98429.09
2018-10-21T16:30:03.954Z,98436.20
2018-10-21T16:32:33.807Z,98435.39
2018-10-21T16:35:42.892Z,98443.27
2018-10-21T16:38:13.042Z,98440.67
2018-10-21T16:44:14.566Z,98452.66
2018-10-21T16:46:44.711Z,98452.41
2018-10-21T16:52:47.620Z,98452.09
2018-10-21T17:02:21.214Z,98457.55
2018-10-21T17:08:22.811Z,98462.14
2018-10-21T17:10:53.064Z,98459.57
2018-10-21T17:13:23.452Z,98463.59
2018-10-21T17:19:24.902Z,98468.60
2018-10-21T17:25:26.683Z,98460.11
2018-10-21T17:27:57.439Z,98457.54
2018-10-21T17:30:27.749Z,98463.27
2018-10-21T17:32:57.537Z,98458.53
2018-10-21T17:35:28.321Z,98460.26
2018-10-21T17:37:58.700Z,98459.41
2018-10-21T17:40:28.891Z,98458.58
2018-10-21T17:42:58.916Z,98457.78
2018-10-21T17:45:29.319Z,98458.72
2018-10-21T17:48:39.716Z,98456.17
2018-10-21T17:51:09.760Z,98465.88
2018-10-21T17:53:44.492Z,98469.85
2018-10-21T17:56:14.679Z,98471.17
2018-10-21T17:58:53.355Z,98481.25
2018-10-21T18:01:23.992Z,98483.90
2018-10-21T18:03:54.045Z,98479.53
2018-10-21T18:06:24.135Z,98491.30
2018-10-21T18:08:54.371Z,98491.38
2018-10-21T18:11:25.740Z,98495.27
2018-10-21T18:13:56.374Z,98503.62
2018-10-21T18:16:26.967Z,98507.11
2018-10-21T18:18:57.519Z,98512.32
2018-10-21T18:21:28.083Z,98518.91
2018-10-21T18:23:58.928Z,98530.66
2018-10-21T18:26:28.996Z,98525.89
2018-10-21T18:28:59.552Z,98527.70
2018-10-21T18:31:29.646Z,98529.05
2018-10-21T18:34:00.248Z,98540.81
2018-10-21T18:36:31.031Z,98538.59
2018-10-21T18:39:02.086Z,98540.27
2018-10-21T18:41:32.105Z,98541.58
2018-10-21T18:44:02.267Z,98543.80
2018-10-21T18:46:32.509Z,98542.05
2018-10-21T18:49:02.964Z,98543.36
2018-10-21T18:51:33.166Z,98546.00
2018-10-21T18:54:04.250Z,98536.42
2018-10-21T18:56:34.681Z,98539.97
2018-10-21T18:59:04.802Z,98538.29
2018-10-21T19:01:35.374Z,98541.00
2018-10-21T19:04:06.991Z,98544.98
2018-10-21T19:06:37.670Z,98537.57
2018-10-21T19:09:12.291Z,98535.84
2018-10-21T19:11:43.390Z,98539.83
2018-10-21T19:14:13.697Z,98533.34
2018-10-21T19:16:43.663Z,98534.27
2018-10-21T19:19:13.889Z,98546.90
2018-10-21T19:21:44.290Z,98437.52
2018-10-21T19:24:14.950Z,98540.84
2018-10-21T19:26:45.539Z,98542.19
2018-10-21T19:29:16.084Z,98546.97
2018-10-21T19:31:46.176Z,98542.18
2018-10-21T19:34:16.693Z,98540.92
2018-10-21T19:36:46.602Z,98546.13
2018-10-21T19:39:16.583Z,98550.92
2018-10-21T19:41:47.004Z,98553.53
2018-10-21T19:44:17.047Z,98548.74
2018-10-21T19:46:47.443Z,98552.64
2018-10-21T19:49:17.944Z,98550.47
2018-10-21T19:51:48.582Z,98554.81
2018-10-21T19:54:20.015Z,98452.34
2018-10-21T19:56:50.811Z,98545.21
2018-10-21T19:59:20.880Z,98543.02
2018-10-21T20:01:51.207Z,98550.02
2018-10-21T20:04:21.143Z,98551.80
2018-10-21T20:06:51.471Z,98541.72
2018-10-21T20:09:21.672Z,98539.08
2018-10-21T20:11:51.819Z,98535.57
2018-10-21T20:14:21.973Z,98535.57
2018-10-21T20:16:51.772Z,98539.02
2018-10-21T20:19:21.963Z,98542.07
2018-10-21T20:21:52.342Z,98538.56
2018-10-21T20:24:24.042Z,98543.31
2018-10-21T20:26:53.705Z,98533.30
2018-10-21T20:29:24.819Z,98539.80
2018-10-21T20:31:55.978Z,98538.06
2018-10-21T20:34:26.105Z,98539.80
2018-10-21T20:36:56.978Z,98544.14
2018-10-21T20:39:26.757Z,98531.92
2018-10-21T20:41:58.825Z,98539.30
2018-10-21T20:44:29.539Z,98527.11
2018-10-21T20:46:59.842Z,98526.61
2018-10-21T20:49:30.172Z,98530.99
2018-10-21T20:52:01.044Z,98527.92
2018-10-21T20:54:36.736Z,98529.69
2018-10-21T20:57:10.021Z,98524.50
2018-10-21T20:59:41.265Z,98524.48
2018-10-21T21:02:12.617Z,98527.11
2018-10-21T21:04:43.556Z,98533.20
2018-10-21T21:07:14.193Z,98534.06
2018-10-21T21:09:44.922Z,98536.22
2018-10-21T21:12:16.381Z,98536.70
2018-10-21T21:14:46.964Z,98538.47
2018-10-21T21:17:16.784Z,98367.57
2018-10-21T21:19:46.604Z,98538.53
2018-10-21T21:22:16.488Z,98535.03
2018-10-21T21:24:46.416Z,98530.20
2018-10-21T21:27:16.383Z,98526.71
2018-10-21T21:29:46.294Z,98526.38
2018-10-21T21:32:16.183Z,98524.68
2018-10-21T21:34:46.044Z,98519.05
2018-10-21T21:37:15.795Z,98525.98
2018-10-21T21:39:45.657Z,98527.34
2018-10-21T21:42:15.518Z,98520.75
2018-10-21T21:44:45.343Z,98528.13
2018-10-21T21:47:15.116Z,98521.13
2018-10-21T21:49:44.924Z,98519.37
2018-10-21T21:52:14.812Z,98515.05
2018-10-21T21:54:44.540Z,98517.22
2018-10-21T21:57:14.364Z,98518.08
2018-10-21T21:59:44.335Z,98521.16
2018-10-21T22:02:14.177Z,98512.05
2018-10-21T22:04:44.059Z,98513.76
2018-10-21T22:07:13.935Z,98508.14
2018-10-21T22:09:43.802Z,98511.29
2018-10-21T22:12:13.732Z,98514.78
2018-10-21T22:14:43.482Z,98510.45
2018-10-21T22:17:13.348Z,98507.81
2018-10-21T22:19:43.163Z,98513.43
2018-10-21T22:22:13.026Z,98517.77
2018-10-21T22:24:42.847Z,98519.96
2018-10-21T22:27:12.711Z,98519.11
2018-10-21T22:29:42.508Z,98522.61
2018-10-21T22:32:12.355Z,98525.25
2018-10-21T22:34:42.211Z,98522.16
2018-10-21T22:37:12.001Z,98528.73
2018-10-21T22:39:41.970Z,98528.73
2018-10-21T22:42:11.833Z,98525.27
2018-10-21T22:44:41.558Z,98533.95
2018-10-21T22:47:12.366Z,98532.22
2018-10-21T22:49:42.242Z,98535.28
2018-10-21T22:52:12.078Z,98538.29
2018-10-21T22:54:41.858Z,98536.11
2018-10-21T22:57:18.692Z,98566.55
2018-10-21T22:59:50.059Z,98536.98
2018-10-21T23:02:19.845Z,98529.13
2018-10-21T23:04:49.683Z,98525.20
2018-10-21T23:07:19.517Z,98521.72
2018-10-21T23:09:49.380Z,98529.57
2018-10-21T23:12:19.165Z,98516.94
2018-10-21T23:14:48.987Z,98516.05
2018-10-21T23:17:18.906Z,98523.00
2018-10-21T23:19:49.952Z,98515.16
2018-10-21T23:22:19.844Z,98523.00
2018-10-21T23:24:49.629Z,98516.03
2018-10-21T23:27:19.451Z,98521.67
2018-10-21T23:29:49.287Z,98515.13
2018-10-21T23:32:19.103Z,98511.17
2018-10-21T23:34:48.907Z,98511.62
2018-10-21T23:37:18.711Z,98509.01
2018-10-21T23:39:48.607Z,98515.09
2018-10-21T23:42:18.447Z,98510.73
2018-10-21T23:44:48.219Z,98511.19
2018-10-21T23:47:18.047Z,98512.91
2018-10-21T23:49:47.846Z,98507.24
2018-10-21T23:52:17.711Z,98502.88
2018-10-21T23:54:47.417Z,98503.73
2018-10-21T23:57:17.166Z,98501.58
2018-10-21T23:59:47.050Z,98502.00
